Loretta G Cenac — WDH4950 — position and weather

sailwx.info

Track history (hours):
 
Tides and Currents Weather Stations Pressure Air Temp Water Temp Dewpoint Dewpoint Depression Visibility Wind Speed Wind Dir Waves Ship Positions

Loretta G Cenac

Owner: Cenac Marine Services, Houma, LA. More information available from US FCC via Universal Licensing System and Coast Guard Vessel Documentation Center.

Last reported at 2017-Sep-24 06:39 UTC. Time now 2017-Sep-25 13:33 UTC.
Position N 31°41' W 091°24'.

Length 24 m; draft 3.3 m.

Type: Tug. MMSI: 367622980.

Date/timePositionNaut miles runAvg speedWind from/ knotsBaromVisibWave heightAir tempDewpointWater temp
2017-Sep-24 06:39N 31°41' W 091°24'1 8.0
2017-Sep-24 06:30N 31°42' W 091°24'6 8.0
2017-Sep-24 05:42N 31°48' W 091°21'2 8.8
2017-Sep-24 05:27N 31°51' W 091°21'3 5.9
2017-Sep-24 04:59N 31°51' W 091°18'13 7.1
2017-Sep-24 03:11N 31°59' W 091°06'1 7.9
2017-Sep-24 03:00N 32°00' W 091°05'4 8.0
2017-Sep-24 02:30N 32°04' W 091°04'4 7.4
2017-Sep-24 02:00N 32°07' W 091°07'4 7.0
2017-Sep-24 01:30N 32°07' W 091°03'4 7.5
2017-Sep-24 01:01N 32°10' W 091°00'4 9.0
2017-Sep-24 00:30N 32°15' W 090°59'4 8.5
2017-Sep-24 00:00N 32°18' W 090°55'3 5.8
2017-Sep-23 23:30N 32°21' W 090°55'4 7.9
2017-Sep-23 23:01N 32°21' W 090°60'4 7.7
2017-Sep-23 22:30N 32°25' W 091°00'4 8.4
2017-Sep-23 22:00N 32°27' W 091°05'4 7.4
2017-Sep-23 21:30N 32°30' W 091°07'4 8.3
2017-Sep-23 21:00N 32°34' W 091°06'4 8.2
2017-Sep-23 20:30N 32°37' W 091°09'  
Track history (hours):
 
Tides and Currents Weather Stations Pressure Air Temp Water Temp Dewpoint Dewpoint Depression Visibility Wind Speed Wind Dir Waves Ship Positions

Loretta G Cenac

Owner: Cenac Marine Services, Houma, LA. More information available from US FCC via Universal Licensing System and Coast Guard Vessel Documentation Center.

Last reported at 2017-Sep-24 06:39 UTC. Time now 2017-Sep-25 13:33 UTC.
Position N 31°41' W 091°24'.

Length 24 m; draft 3.3 m.

Type: Tug. MMSI: 367622980.

Date/timePositionNaut miles runAvg speedWind from/ knotsBaromVisibWave heightAir tempDewpointWater temp
2017-Sep-24 06:39N 31°41' W 091°24'1 8.0
2017-Sep-24 06:30N 31°42' W 091°24'6 8.0
2017-Sep-24 05:42N 31°48' W 091°21'2 8.8
2017-Sep-24 05:27N 31°51' W 091°21'3 5.9
2017-Sep-24 04:59N 31°51' W 091°18'13 7.1
2017-Sep-24 03:11N 31°59' W 091°06'1 7.9
2017-Sep-24 03:00N 32°00' W 091°05'4 8.0
2017-Sep-24 02:30N 32°04' W 091°04'4 7.4
2017-Sep-24 02:00N 32°07' W 091°07'4 7.0
2017-Sep-24 01:30N 32°07' W 091°03'4 7.5
2017-Sep-24 01:01N 32°10' W 091°00'4 9.0
2017-Sep-24 00:30N 32°15' W 090°59'4 8.5
2017-Sep-24 00:00N 32°18' W 090°55'3 5.8
2017-Sep-23 23:30N 32°21' W 090°55'4 7.9
2017-Sep-23 23:01N 32°21' W 090°60'4 7.7
2017-Sep-23 22:30N 32°25' W 091°00'4 8.4
2017-Sep-23 22:00N 32°27' W 091°05'4 7.4
2017-Sep-23 21:30N 32°30' W 091°07'4 8.3
2017-Sep-23 21:00N 32°34' W 091°06'4 8.2
2017-Sep-23 20:30N 32°37' W 091°09'  

Dump ship's entire track history